sensor_id;sensor_type;location;lat;lon;timestamp;temperature;humidity
61004;DHT22;46889;37.310;13.582;2022-11-11T00:01:05;17.20;99.90
61004;DHT22;46889;37.310;13.582;2022-11-11T00:03:33;17.10;99.90
61004;DHT22;46889;37.310;13.582;2022-11-11T00:06:04;17.20;99.90
61004;DHT22;46889;37.310;13.582;2022-11-11T00:08:31;17.10;99.90
61004;DHT22;46889;37.310;13.582;2022-11-11T00:11:03;17.10;99.90
61004;DHT22;46889;37.310;13.582;2022-11-11T00:13:30;17.00;99.90
61004;DHT22;46889;37.310;13.582;2022-11-11T00:16:06;17.00;99.90
61004;DHT22;46889;37.310;13.582;2022-11-11T00:18:41;16.90;99.90
61004;DHT22;46889;37.310;13.582;2022-11-11T00:21:26;16.90;99.90
61004;DHT22;46889;37.310;13.582;2022-11-11T00:24:23;16.90;99.90
61004;DHT22;46889;37.310;13.582;2022-11-11T00:27:09;16.80;99.90
61004;DHT22;46889;37.310;13.582;2022-11-11T00:29:36;16.80;99.90
61004;DHT22;46889;37.310;13.582;2022-11-11T00:32:07;16.80;99.90
61004;DHT22;46889;37.310;13.582;2022-11-11T00:34:58;16.80;99.90
61004;DHT22;46889;37.310;13.582;2022-11-11T00:37:44;16.70;99.90
61004;DHT22;46889;37.310;13.582;2022-11-11T00:40:12;16.70;99.90
61004;DHT22;46889;37.310;13.582;2022-11-11T00:42:38;16.70;99.90
61004;DHT22;46889;37.310;13.582;2022-11-11T00:45:05;16.70;99.90
61004;DHT22;46889;37.310;13.582;2022-11-11T00:47:32;16.60;99.90
61004;DHT22;46889;37.310;13.582;2022-11-11T00:50:25;16.60;99.90
61004;DHT22;46889;37.310;13.582;2022-11-11T00:53:19;16.60;99.90
61004;DHT22;46889;37.310;13.582;2022-11-11T00:55:46;16.60;99.90
61004;DHT22;46889;37.310;13.582;2022-11-11T00:58:12;16.60;99.90
61004;DHT22;46889;37.310;13.582;2022-11-11T01:00:42;16.60;99.90
61004;DHT22;46889;37.310;13.582;2022-11-11T01:03:10;16.70;99.90
61004;DHT22;46889;37.310;13.582;2022-11-11T01:05:37;16.70;99.90
61004;DHT22;46889;37.310;13.582;2022-11-11T01:08:03;16.70;99.90
61004;DHT22;46889;37.310;13.582;2022-11-11T01:10:30;16.80;99.90
61004;DHT22;46889;37.310;13.582;2022-11-11T01:13:12;16.80;99.90
61004;DHT22;46889;37.310;13.582;2022-11-11T01:15:43;16.80;99.90
61004;DHT22;46889;37.310;13.582;2022-11-11T01:18:11;16.90;99.90
61004;DHT22;46889;37.310;13.582;2022-11-11T01:20:38;16.90;99.90
61004;DHT22;46889;37.310;13.582;2022-11-11T01:23:06;16.90;99.90
61004;DHT22;46889;37.310;13.582;2022-11-11T01:25:34;16.90;99.90
61004;DHT22;46889;37.310;13.582;2022-11-11T01:28:01;16.90;99.90
61004;DHT22;46889;37.310;13.582;2022-11-11T01:30:27;16.90;99.90
61004;DHT22;46889;37.310;13.582;2022-11-11T01:32:55;16.90;99.90
61004;DHT22;46889;37.310;13.582;2022-11-11T01:35:21;16.90;99.90
61004;DHT22;46889;37.310;13.582;2022-11-11T01:37:48;16.80;99.90
61004;DHT22;46889;37.310;13.582;2022-11-11T01:40:14;16.80;99.90
61004;DHT22;46889;37.310;13.582;2022-11-11T01:45:47;16.80;99.90
61004;DHT22;46889;37.310;13.582;2022-11-11T01:48:18;16.70;99.90
61004;DHT22;46889;37.310;13.582;2022-11-11T01:51:18;16.60;99.90
61004;DHT22;46889;37.310;13.582;2022-11-11T01:53:49;16.60;99.90
61004;DHT22;46889;37.310;13.582;2022-11-11T01:56:16;16.60;99.90
61004;DHT22;46889;37.310;13.582;2022-11-11T01:58:43;16.50;99.90
61004;DHT22;46889;37.310;13.582;2022-11-11T02:01:11;16.50;99.90
61004;DHT22;46889;37.310;13.582;2022-11-11T02:03:40;16.50;99.90
61004;DHT22;46889;37.310;13.582;2022-11-11T02:06:07;16.50;99.90
61004;DHT22;46889;37.310;13.582;2022-11-11T02:08:34;16.50;99.90
61004;DHT22;46889;37.310;13.582;2022-11-11T02:11:13;16.40;99.90
61004;DHT22;46889;37.310;13.582;2022-11-11T02:13:43;16.40;99.90
61004;DHT22;46889;37.310;13.582;2022-11-11T02:16:27;16.40;99.90
61004;DHT22;46889;37.310;13.582;2022-11-11T02:18:54;16.40;99.90
61004;DHT22;46889;37.310;13.582;2022-11-11T02:21:29;16.50;99.90
61004;DHT22;46889;37.310;13.582;2022-11-11T02:24:03;16.40;99.90
61004;DHT22;46889;37.310;13.582;2022-11-11T02:26:33;16.50;99.90
61004;DHT22;46889;37.310;13.582;2022-11-11T02:29:02;16.50;99.90
61004;DHT22;46889;37.310;13.582;2022-11-11T02:31:31;16.60;99.90
61004;DHT22;46889;37.310;13.582;2022-11-11T02:33:58;16.60;99.90
61004;DHT22;46889;37.310;13.582;2022-11-11T02:36:26;16.60;99.90
61004;DHT22;46889;37.310;13.582;2022-11-11T02:38:52;16.60;99.90
61004;DHT22;46889;37.310;13.582;2022-11-11T02:41:19;16.50;99.90
61004;DHT22;46889;37.310;13.582;2022-11-11T02:44:04;16.60;99.90
61004;DHT22;46889;37.310;13.582;2022-11-11T02:46:30;16.60;99.90
61004;DHT22;46889;37.310;13.582;2022-11-11T02:48:57;16.60;99.90
61004;DHT22;46889;37.310;13.582;2022-11-11T02:51:24;16.60;99.90
61004;DHT22;46889;37.310;13.582;2022-11-11T02:53:51;16.60;99.90
61004;DHT22;46889;37.310;13.582;2022-11-11T02:56:24;16.60;99.90
61004;DHT22;46889;37.310;13.582;2022-11-11T02:59:08;16.50;99.90
61004;DHT22;46889;37.310;13.582;2022-11-11T03:01:34;16.50;99.90
61004;DHT22;46889;37.310;13.582;2022-11-11T03:04:02;16.50;99.90
61004;DHT22;46889;37.310;13.582;2022-11-11T03:06:28;16.50;99.90
61004;DHT22;46889;37.310;13.582;2022-11-11T03:08:56;16.50;99.90
61004;DHT22;46889;37.310;13.582;2022-11-11T03:11:24;16.40;99.90
61004;DHT22;46889;37.310;13.582;2022-11-11T03:13:54;16.40;99.90
61004;DHT22;46889;37.310;13.582;2022-11-11T03:16:21;16.40;99.90
61004;DHT22;46889;37.310;13.582;2022-11-11T03:19:05;16.30;99.90
61004;DHT22;46889;37.310;13.582;2022-11-11T03:21:31;16.40;99.90
61004;DHT22;46889;37.310;13.582;2022-11-11T03:23:57;16.40;99.90
61004;DHT22;46889;37.310;13.582;2022-11-11T03:26:23;16.40;99.90
61004;DHT22;46889;37.310;13.582;2022-11-11T03:28:50;16.50;99.90
61004;DHT22;46889;37.310;13.582;2022-11-11T03:31:18;16.50;99.90
61004;DHT22;46889;37.310;13.582;2022-11-11T03:33:44;16.50;99.90
61004;DHT22;46889;37.310;13.582;2022-11-11T03:36:11;16.50;99.90
61004;DHT22;46889;37.310;13.582;2022-11-11T03:38:43;16.60;99.90
61004;DHT22;46889;37.310;13.582;2022-11-11T03:41:09;16.60;99.90
61004;DHT22;46889;37.310;13.582;2022-11-11T03:43:36;16.60;99.90
61004;DHT22;46889;37.310;13.582;2022-11-11T03:46:04;16.70;99.90
61004;DHT22;46889;37.310;13.582;2022-11-11T03:48:33;16.70;99.90
61004;DHT22;46889;37.310;13.582;2022-11-11T03:51:04;16.70;99.90
61004;DHT22;46889;37.310;13.582;2022-11-11T03:53:30;16.80;99.90
61004;DHT22;46889;37.310;13.582;2022-11-11T03:55:56;16.80;99.90
61004;DHT22;46889;37.310;13.582;2022-11-11T03:58:23;16.80;99.90
61004;DHT22;46889;37.310;13.582;2022-11-11T04:00:49;16.80;99.90
61004;DHT22;46889;37.310;13.582;2022-11-11T04:03:17;16.80;99.90
61004;DHT22;46889;37.310;13.582;2022-11-11T04:06:03;16.70;99.90
61004;DHT22;46889;37.310;13.582;2022-11-11T04:08:48;16.80;99.90
61004;DHT22;46889;37.310;13.582;2022-11-11T04:11:39;16.80;99.90
61004;DHT22;46889;37.310;13.582;2022-11-11T04:14:11;16.80;99.90
61004;DHT22;46889;37.310;13.582;2022-11-11T04:16:57;16.70;99.90
61004;DHT22;46889;37.310;13.582;2022-11-11T04:19:23;16.80;99.90
61004;DHT22;46889;37.310;13.582;2022-11-11T04:22:09;16.80;99.90
61004;DHT22;46889;37.310;13.582;2022-11-11T04:24:36;16.80;99.90
61004;DHT22;46889;37.310;13.582;2022-11-11T04:27:21;16.80;99.90
61004;DHT22;46889;37.310;13.582;2022-11-11T04:29:48;16.80;99.90
61004;DHT22;46889;37.310;13.582;2022-11-11T04:32:20;16.80;99.90
61004;DHT22;46889;37.310;13.582;2022-11-11T04:35:09;16.80;99.90
61004;DHT22;46889;37.310;13.582;2022-11-11T04:37:44;16.90;99.90
61004;DHT22;46889;37.310;13.582;2022-11-11T04:40:11;16.90;99.90
61004;DHT22;46889;37.310;13.582;2022-11-11T04:42:55;17.00;99.90
61004;DHT22;46889;37.310;13.582;2022-11-11T04:45:21;16.90;99.90
61004;DHT22;46889;37.310;13.582;2022-11-11T04:48:07;16.90;99.90
61004;DHT22;46889;37.310;13.582;2022-11-11T04:50:37;16.90;99.90
61004;DHT22;46889;37.310;13.582;2022-11-11T04:53:06;16.90;99.90
61004;DHT22;46889;37.310;13.582;2022-11-11T04:55:32;16.90;99.90
61004;DHT22;46889;37.310;13.582;2022-11-11T04:58:18;16.80;99.90
61004;DHT22;46889;37.310;13.582;2022-11-11T05:00:46;16.80;99.90
61004;DHT22;46889;37.310;13.582;2022-11-11T05:03:12;16.80;99.90
61004;DHT22;46889;37.310;13.582;2022-11-11T05:08:38;16.80;99.90
61004;DHT22;46889;37.310;13.582;2022-11-11T05:11:26;16.80;99.90
61004;DHT22;46889;37.310;13.582;2022-11-11T05:14:00;16.80;99.90
61004;DHT22;46889;37.310;13.582;2022-11-11T05:16:47;16.80;99.90
61004;DHT22;46889;37.310;13.582;2022-11-11T05:19:32;16.80;99.90
61004;DHT22;46889;37.310;13.582;2022-11-11T05:22:27;16.80;99.90
61004;DHT22;46889;37.310;13.582;2022-11-11T05:24:53;16.80;99.90
61004;DHT22;46889;37.310;13.582;2022-11-11T05:27:38;16.90;99.90
61004;DHT22;46889;37.310;13.582;2022-11-11T05:30:06;16.80;99.90
61004;DHT22;46889;37.310;13.582;2022-11-11T05:32:33;16.90;99.90
61004;DHT22;46889;37.310;13.582;2022-11-11T05:34:59;16.90;99.90
61004;DHT22;46889;37.310;13.582;2022-11-11T05:37:25;16.90;99.90
61004;DHT22;46889;37.310;13.582;2022-11-11T05:39:51;16.90;99.90
61004;DHT22;46889;37.310;13.582;2022-11-11T05:42:17;16.90;99.90
61004;DHT22;46889;37.310;13.582;2022-11-11T05:44:45;17.00;99.90
61004;DHT22;46889;37.310;13.582;2022-11-11T05:47:13;17.00;99.90
61004;DHT22;46889;37.310;13.582;2022-11-11T05:49:39;17.00;99.90
61004;DHT22;46889;37.310;13.582;2022-11-11T05:52:06;17.00;99.90
61004;DHT22;46889;37.310;13.582;2022-11-11T05:54:33;17.00;99.90
61004;DHT22;46889;37.310;13.582;2022-11-11T05:56:59;17.00;99.90
61004;DHT22;46889;37.310;13.582;2022-11-11T05:59:25;17.00;99.90
61004;DHT22;46889;37.310;13.582;2022-11-11T06:01:51;17.10;99.90
61004;DHT22;46889;37.310;13.582;2022-11-11T06:04:24;17.10;99.90
61004;DHT22;46889;37.310;13.582;2022-11-11T06:06:51;17.20;99.90
61004;DHT22;46889;37.310;13.582;2022-11-11T06:09:20;17.30;99.90
61004;DHT22;46889;37.310;13.582;2022-11-11T06:11:46;17.30;99.90
61004;DHT22;46889;37.310;13.582;2022-11-11T06:14:18;17.30;99.90
61004;DHT22;46889;37.310;13.582;2022-11-11T06:16:45;17.40;99.90
61004;DHT22;46889;37.310;13.582;2022-11-11T06:19:11;17.40;99.90
61004;DHT22;46889;37.310;13.582;2022-11-11T06:21:37;17.40;99.90
61004;DHT22;46889;37.310;13.582;2022-11-11T06:24:21;17.40;99.90
61004;DHT22;46889;37.310;13.582;2022-11-11T06:26:47;17.40;99.90
61004;DHT22;46889;37.310;13.582;2022-11-11T06:29:13;17.30;99.90
61004;DHT22;46889;37.310;13.582;2022-11-11T06:31:48;17.40;99.90
61004;DHT22;46889;37.310;13.582;2022-11-11T06:34:14;17.40;99.90
61004;DHT22;46889;37.310;13.582;2022-11-11T06:36:42;17.50;99.90
61004;DHT22;46889;37.310;13.582;2022-11-11T06:39:08;17.60;99.90
61004;DHT22;46889;37.310;13.582;2022-11-11T06:41:48;17.90;99.90
61004;DHT22;46889;37.310;13.582;2022-11-11T06:44:14;18.30;99.90
61004;DHT22;46889;37.310;13.582;2022-11-11T06:46:41;18.70;99.90
61004;DHT22;46889;37.310;13.582;2022-11-11T06:49:09;19.00;99.90
61004;DHT22;46889;37.310;13.582;2022-11-11T06:51:35;19.20;99.90
61004;DHT22;46889;37.310;13.582;2022-11-11T06:54:16;19.40;99.90
61004;DHT22;46889;37.310;13.582;2022-11-11T06:56:42;19.80;99.90
61004;DHT22;46889;37.310;13.582;2022-11-11T06:59:17;20.00;99.90
61004;DHT22;46889;37.310;13.582;2022-11-11T07:01:44;20.00;99.90
61004;DHT22;46889;37.310;13.582;2022-11-11T07:04:11;20.00;99.90
61004;DHT22;46889;37.310;13.582;2022-11-11T07:06:37;20.20;99.90
61004;DHT22;46889;37.310;13.582;2022-11-11T07:09:03;20.40;99.90
61004;DHT22;46889;37.310;13.582;2022-11-11T07:11:29;20.50;99.90
61004;DHT22;46889;37.310;13.582;2022-11-11T07:13:56;20.70;99.90
61004;DHT22;46889;37.310;13.582;2022-11-11T07:16:25;21.00;99.90
61004;DHT22;46889;37.310;13.582;2022-11-11T07:18:51;21.20;99.90
61004;DHT22;46889;37.310;13.582;2022-11-11T07:21:18;21.40;99.90
61004;DHT22;46889;37.310;13.582;2022-11-11T07:23:45;21.70;99.90
61004;DHT22;46889;37.310;13.582;2022-11-11T07:26:11;21.90;99.90
61004;DHT22;46889;37.310;13.582;2022-11-11T07:28:38;21.90;99.90
61004;DHT22;46889;37.310;13.582;2022-11-11T07:31:04;21.60;99.90
61004;DHT22;46889;37.310;13.582;2022-11-11T07:33:46;21.30;99.90
61004;DHT22;46889;37.310;13.582;2022-11-11T07:36:12;21.10;99.90
61004;DHT22;46889;37.310;13.582;2022-11-11T07:38:44;21.10;99.90
61004;DHT22;46889;37.310;13.582;2022-11-11T07:41:13;21.10;99.90
61004;DHT22;46889;37.310;13.582;2022-11-11T07:43:40;20.90;99.90
61004;DHT22;46889;37.310;13.582;2022-11-11T07:46:07;20.90;99.90
61004;DHT22;46889;37.310;13.582;2022-11-11T07:48:36;21.00;99.90
61004;DHT22;46889;37.310;13.582;2022-11-11T07:51:02;21.00;99.90
61004;DHT22;46889;37.310;13.582;2022-11-11T07:53:47;20.90;99.90
61004;DHT22;46889;37.310;13.582;2022-11-11T07:56:13;20.80;99.90
61004;DHT22;46889;37.310;13.582;2022-11-11T07:58:40;20.80;99.90
61004;DHT22;46889;37.310;13.582;2022-11-11T08:01:07;20.90;99.90
61004;DHT22;46889;37.310;13.582;2022-11-11T08:03:34;20.90;99.90
61004;DHT22;46889;37.310;13.582;2022-11-11T08:06:01;20.90;99.90
61004;DHT22;46889;37.310;13.582;2022-11-11T08:08:27;20.90;99.90
61004;DHT22;46889;37.310;13.582;2022-11-11T08:10:54;21.20;99.90
61004;DHT22;46889;37.310;13.582;2022-11-11T08:13:21;21.40;99.90
61004;DHT22;46889;37.310;13.582;2022-11-11T08:19:12;21.10;99.90
61004;DHT22;46889;37.310;13.582;2022-11-11T08:21:38;20.90;99.90
61004;DHT22;46889;37.310;13.582;2022-11-11T08:24:05;20.90;99.90
61004;DHT22;46889;37.310;13.582;2022-11-11T08:26:48;21.00;99.90
61004;DHT22;46889;37.310;13.582;2022-11-11T08:29:15;21.30;99.90
61004;DHT22;46889;37.310;13.582;2022-11-11T08:31:41;21.40;99.90
61004;DHT22;46889;37.310;13.582;2022-11-11T08:34:07;21.50;99.90
61004;DHT22;46889;37.310;13.582;2022-11-11T08:36:33;21.70;99.90
61004;DHT22;46889;37.310;13.582;2022-11-11T08:38:59;21.70;99.90
61004;DHT22;46889;37.310;13.582;2022-11-11T08:41:25;21.80;99.90
61004;DHT22;46889;37.310;13.582;2022-11-11T08:43:52;21.80;99.90
61004;DHT22;46889;37.310;13.582;2022-11-11T08:46:19;21.90;99.90
61004;DHT22;46889;37.310;13.582;2022-11-11T08:48:47;22.00;99.90
61004;DHT22;46889;37.310;13.582;2022-11-11T08:51:13;22.10;99.90
61004;DHT22;46889;37.310;13.582;2022-11-11T08:53:40;22.10;99.90
61004;DHT22;46889;37.310;13.582;2022-11-11T08:56:06;21.80;99.90
61004;DHT22;46889;37.310;13.582;2022-11-11T08:58:33;21.70;99.90
61004;DHT22;46889;37.310;13.582;2022-11-11T09:01:00;21.70;99.90
61004;DHT22;46889;37.310;13.582;2022-11-11T09:03:29;21.30;99.90
61004;DHT22;46889;37.310;13.582;2022-11-11T09:05:55;21.40;99.90
61004;DHT22;46889;37.310;13.582;2022-11-11T09:08:22;21.40;99.90
61004;DHT22;46889;37.310;13.582;2022-11-11T09:10:48;21.20;99.90
61004;DHT22;46889;37.310;13.582;2022-11-11T09:13:14;21.20;99.90
61004;DHT22;46889;37.310;13.582;2022-11-11T09:15:40;21.10;99.90
61004;DHT22;46889;37.310;13.582;2022-11-11T09:18:06;21.10;99.90
61004;DHT22;46889;37.310;13.582;2022-11-11T09:20:35;21.30;99.90
61004;DHT22;46889;37.310;13.582;2022-11-11T09:23:01;21.50;99.90
61004;DHT22;46889;37.310;13.582;2022-11-11T09:25:27;21.80;99.90
61004;DHT22;46889;37.310;13.582;2022-11-11T09:27:59;22.00;99.90
61004;DHT22;46889;37.310;13.582;2022-11-11T09:30:26;21.90;99.90
61004;DHT22;46889;37.310;13.582;2022-11-11T09:32:53;21.80;99.90
61004;DHT22;46889;37.310;13.582;2022-11-11T09:35:19;21.70;99.90
61004;DHT22;46889;37.310;13.582;2022-11-11T09:37:57;21.50;99.90
61004;DHT22;46889;37.310;13.582;2022-11-11T09:40:25;21.30;99.90
61004;DHT22;46889;37.310;13.582;2022-11-11T09:42:57;21.30;99.90
61004;DHT22;46889;37.310;13.582;2022-11-11T09:45:59;21.30;99.90
61004;DHT22;46889;37.310;13.582;2022-11-11T09:49:01;21.30;99.90
61004;DHT22;46889;37.310;13.582;2022-11-11T09:51:36;21.20;99.90
61004;DHT22;46889;37.310;13.582;2022-11-11T09:54:09;21.20;99.90
61004;DHT22;46889;37.310;13.582;2022-11-11T09:56:38;21.10;99.90
61004;DHT22;46889;37.310;13.582;2022-11-11T09:59:23;21.10;99.90
61004;DHT22;46889;37.310;13.582;2022-11-11T10:01:55;21.20;99.90
61004;DHT22;46889;37.310;13.582;2022-11-11T10:07:23;21.40;99.90
61004;DHT22;46889;37.310;13.582;2022-11-11T10:09:59;21.30;99.90
61004;DHT22;46889;37.310;13.582;2022-11-11T10:12:36;21.40;99.90
61004;DHT22;46889;37.310;13.582;2022-11-11T10:15:11;21.70;99.90
61004;DHT22;46889;37.310;13.582;2022-11-11T10:20:27;21.80;99.90
61004;DHT22;46889;37.310;13.582;2022-11-11T10:23:24;21.70;99.90
61004;DHT22;46889;37.310;13.582;2022-11-11T10:25:56;21.60;99.90
61004;DHT22;46889;37.310;13.582;2022-11-11T10:28:43;21.70;99.90
61004;DHT22;46889;37.310;13.582;2022-11-11T10:31:15;21.80;99.90
61004;DHT22;46889;37.310;13.582;2022-11-11T10:33:54;21.90;99.90
61004;DHT22;46889;37.310;13.582;2022-11-11T10:36:52;21.80;99.90
61004;DHT22;46889;37.310;13.582;2022-11-11T10:39:24;21.80;99.90
61004;DHT22;46889;37.310;13.582;2022-11-11T10:41:52;21.90;99.90
61004;DHT22;46889;37.310;13.582;2022-11-11T10:44:30;21.90;99.90
61004;DHT22;46889;37.310;13.582;2022-11-11T10:49:56;21.90;99.90
61004;DHT22;46889;37.310;13.582;2022-11-11T10:52:32;22.00;99.90
61004;DHT22;46889;37.310;13.582;2022-11-11T10:55:08;22.00;99.90
61004;DHT22;46889;37.310;13.582;2022-11-11T10:57:59;22.20;99.90
61004;DHT22;46889;37.310;13.582;2022-11-11T11:00:27;22.20;99.90
61004;DHT22;46889;37.310;13.582;2022-11-11T11:03:17;22.30;99.90
61004;DHT22;46889;37.310;13.582;2022-11-11T11:06:02;22.50;99.90
61004;DHT22;46889;37.310;13.582;2022-11-11T11:08:40;22.70;99.90
61004;DHT22;46889;37.310;13.582;2022-11-11T11:11:30;23.00;99.90
61004;DHT22;46889;37.310;13.582;2022-11-11T11:17:07;23.10;99.90
61004;DHT22;46889;37.310;13.582;2022-11-11T11:19:35;23.20;99.90
61004;DHT22;46889;37.310;13.582;2022-11-11T11:22:02;23.30;99.90
61004;DHT22;46889;37.310;13.582;2022-11-11T11:24:31;23.30;99.90
61004;DHT22;46889;37.310;13.582;2022-11-11T11:27:00;23.40;99.90
61004;DHT22;46889;37.310;13.582;2022-11-11T11:29:38;23.60;99.90
61004;DHT22;46889;37.310;13.582;2022-11-11T11:32:20;23.90;99.90
61004;DHT22;46889;37.310;13.582;2022-11-11T11:35:12;24.10;99.90
61004;DHT22;46889;37.310;13.582;2022-11-11T11:37:53;24.20;99.90
61004;DHT22;46889;37.310;13.582;2022-11-11T11:40:19;24.40;99.90
61004;DHT22;46889;37.310;13.582;2022-11-11T11:42:46;24.30;99.90
61004;DHT22;46889;37.310;13.582;2022-11-11T11:45:28;24.30;99.90
61004;DHT22;46889;37.310;13.582;2022-11-11T11:48:37;24.50;99.90
61004;DHT22;46889;37.310;13.582;2022-11-11T11:54:12;24.90;99.90
61004;DHT22;46889;37.310;13.582;2022-11-11T11:56:52;24.90;99.90
61004;DHT22;46889;37.310;13.582;2022-11-11T11:59:33;24.90;99.90
61004;DHT22;46889;37.310;13.582;2022-11-11T12:13:35;24.30;99.90
61004;DHT22;46889;37.310;13.582;2022-11-11T12:16:24;24.30;99.90
61004;DHT22;46889;37.310;13.582;2022-11-11T12:28:11;23.30;99.90
61004;DHT22;46889;37.310;13.582;2022-11-11T12:30:53;23.10;99.90
61004;DHT22;46889;37.310;13.582;2022-11-11T12:36:40;22.90;99.90
61004;DHT22;46889;37.310;13.582;2022-11-11T12:39:30;22.90;99.90
61004;DHT22;46889;37.310;13.582;2022-11-11T12:45:09;23.40;99.90
61004;DHT22;46889;37.310;13.582;2022-11-11T12:48:04;23.50;99.90
61004;DHT22;46889;37.310;13.582;2022-11-11T12:50:59;23.70;99.90
61004;DHT22;46889;37.310;13.582;2022-11-11T12:53:52;23.70;99.90
61004;DHT22;46889;37.310;13.582;2022-11-11T12:56:30;23.80;99.90
61004;DHT22;46889;37.310;13.582;2022-11-11T13:01:54;24.10;99.90
61004;DHT22;46889;37.310;13.582;2022-11-11T13:10:30;24.20;99.90
61004;DHT22;46889;37.310;13.582;2022-11-11T13:15:26;24.10;99.90
61004;DHT22;46889;37.310;13.582;2022-11-11T13:17:58;23.80;99.90
61004;DHT22;46889;37.310;13.582;2022-11-11T13:20:45;23.70;99.90
61004;DHT22;46889;37.310;13.582;2022-11-11T13:23:15;23.40;99.90
61004;DHT22;46889;37.310;13.582;2022-11-11T13:25:48;23.20;99.90
61004;DHT22;46889;37.310;13.582;2022-11-11T13:28:52;23.10;99.90
61004;DHT22;46889;37.310;13.582;2022-11-11T13:34:01;23.20;99.90
61004;DHT22;46889;37.310;13.582;2022-11-11T13:36:44;23.00;99.90
61004;DHT22;46889;37.310;13.582;2022-11-11T13:39:31;23.10;99.90
61004;DHT22;46889;37.310;13.582;2022-11-11T13:41:59;23.10;99.90
61004;DHT22;46889;37.310;13.582;2022-11-11T13:44:34;23.00;99.90
61004;DHT22;46889;37.310;13.582;2022-11-11T13:47:06;23.00;99.90
61004;DHT22;46889;37.310;13.582;2022-11-11T13:52:36;22.80;99.90
61004;DHT22;46889;37.310;13.582;2022-11-11T13:57:52;22.60;99.90
61004;DHT22;46889;37.310;13.582;2022-11-11T14:00:23;22.50;99.90
61004;DHT22;46889;37.310;13.582;2022-11-11T14:05:45;22.20;99.90
61004;DHT22;46889;37.310;13.582;2022-11-11T14:11:33;22.20;99.90
61004;DHT22;46889;37.310;13.582;2022-11-11T14:21:52;22.10;99.90
61004;DHT22;46889;37.310;13.582;2022-11-11T14:24:45;22.10;99.90
61004;DHT22;46889;37.310;13.582;2022-11-11T14:29:46;21.80;99.90
61004;DHT22;46889;37.310;13.582;2022-11-11T14:35:27;21.80;99.90
61004;DHT22;46889;37.310;13.582;2022-11-11T14:40:40;21.70;99.90
61004;DHT22;46889;37.310;13.582;2022-11-11T14:46:10;21.60;99.90
61004;DHT22;46889;37.310;13.582;2022-11-11T14:48:53;21.50;99.90
61004;DHT22;46889;37.310;13.582;2022-11-11T14:54:51;21.30;99.90
61004;DHT22;46889;37.310;13.582;2022-11-11T14:57:25;21.20;99.90
61004;DHT22;46889;37.310;13.582;2022-11-11T14:59:54;21.20;99.90
61004;DHT22;46889;37.310;13.582;2022-11-11T15:02:53;21.20;99.90
61004;DHT22;46889;37.310;13.582;2022-11-11T15:05:48;21.20;99.90
61004;DHT22;46889;37.310;13.582;2022-11-11T15:08:37;21.10;99.90
61004;DHT22;46889;37.310;13.582;2022-11-11T15:14:16;21.10;99.90
61004;DHT22;46889;37.310;13.582;2022-11-11T15:25:49;21.00;99.90
61004;DHT22;46889;37.310;13.582;2022-11-11T15:37:31;20.70;99.90
61004;DHT22;46889;37.310;13.582;2022-11-11T15:39:57;20.60;99.90
61004;DHT22;46889;37.310;13.582;2022-11-11T15:42:34;20.50;99.90
61004;DHT22;46889;37.310;13.582;2022-11-11T15:45:14;20.40;99.90
61004;DHT22;46889;37.310;13.582;2022-11-11T15:47:46;20.40;99.90
61004;DHT22;46889;37.310;13.582;2022-11-11T15:50:17;20.30;99.90
61004;DHT22;46889;37.310;13.582;2022-11-11T15:52:43;20.20;99.90
61004;DHT22;46889;37.310;13.582;2022-11-11T15:55:27;20.20;99.90
61004;DHT22;46889;37.310;13.582;2022-11-11T15:58:06;20.10;99.90
61004;DHT22;46889;37.310;13.582;2022-11-11T16:00:32;20.00;99.90
61004;DHT22;46889;37.310;13.582;2022-11-11T16:03:00;19.90;99.90
61004;DHT22;46889;37.310;13.582;2022-11-11T16:05:28;19.80;99.90
61004;DHT22;46889;37.310;13.582;2022-11-11T16:08:02;19.80;99.90
61004;DHT22;46889;37.310;13.582;2022-11-11T16:10:56;19.70;99.90
61004;DHT22;46889;37.310;13.582;2022-11-11T16:13:34;19.60;99.90
61004;DHT22;46889;37.310;13.582;2022-11-11T16:16:24;19.60;99.90
61004;DHT22;46889;37.310;13.582;2022-11-11T16:21:44;19.50;99.90
61004;DHT22;46889;37.310;13.582;2022-11-11T16:24:34;19.40;99.90
61004;DHT22;46889;37.310;13.582;2022-11-11T16:27:05;19.40;99.90
61004;DHT22;46889;37.310;13.582;2022-11-11T16:29:37;19.30;99.90
61004;DHT22;46889;37.310;13.582;2022-11-11T16:32:39;19.30;99.90
61004;DHT22;46889;37.310;13.582;2022-11-11T16:35:23;19.20;99.90
61004;DHT22;46889;37.310;13.582;2022-11-11T16:37:51;19.20;99.90
61004;DHT22;46889;37.310;13.582;2022-11-11T16:40:35;19.10;99.90
61004;DHT22;46889;37.310;13.582;2022-11-11T16:43:27;19.10;99.90
61004;DHT22;46889;37.310;13.582;2022-11-11T16:46:11;19.10;99.90
61004;DHT22;46889;37.310;13.582;2022-11-11T16:48:50;19.00;99.90
61004;DHT22;46889;37.310;13.582;2022-11-11T16:51:23;19.00;99.90
61004;DHT22;46889;37.310;13.582;2022-11-11T16:53:56;19.00;99.90
61004;DHT22;46889;37.310;13.582;2022-11-11T16:56:33;19.00;99.90
61004;DHT22;46889;37.310;13.582;2022-11-11T16:59:07;19.00;99.90
61004;DHT22;46889;37.310;13.582;2022-11-11T17:01:44;18.90;99.90
61004;DHT22;46889;37.310;13.582;2022-11-11T17:04:12;18.90;99.90
61004;DHT22;46889;37.310;13.582;2022-11-11T17:06:55;18.90;99.90
61004;DHT22;46889;37.310;13.582;2022-11-11T17:09:32;18.80;99.90
61004;DHT22;46889;37.310;13.582;2022-11-11T17:12:01;18.80;99.90
61004;DHT22;46889;37.310;13.582;2022-11-11T17:14:29;18.80;99.90
61004;DHT22;46889;37.310;13.582;2022-11-11T17:17:18;18.80;99.90
61004;DHT22;46889;37.310;13.582;2022-11-11T17:19:44;18.70;99.90
61004;DHT22;46889;37.310;13.582;2022-11-11T17:22:10;18.70;99.90
61004;DHT22;46889;37.310;13.582;2022-11-11T17:24:37;18.70;99.90
61004;DHT22;46889;37.310;13.582;2022-11-11T17:27:07;18.70;99.90
61004;DHT22;46889;37.310;13.582;2022-11-11T17:29:36;18.70;99.90
61004;DHT22;46889;37.310;13.582;2022-11-11T17:32:02;18.60;99.90
61004;DHT22;46889;37.310;13.582;2022-11-11T17:34:29;18.60;99.90
61004;DHT22;46889;37.310;13.582;2022-11-11T17:36:56;18.50;99.90
61004;DHT22;46889;37.310;13.582;2022-11-11T17:39:23;18.40;99.90
61004;DHT22;46889;37.310;13.582;2022-11-11T17:41:52;18.40;99.90
61004;DHT22;46889;37.310;13.582;2022-11-11T17:44:18;18.40;99.90
61004;DHT22;46889;37.310;13.582;2022-11-11T17:46:45;18.30;99.90
61004;DHT22;46889;37.310;13.582;2022-11-11T17:49:12;18.30;99.90
61004;DHT22;46889;37.310;13.582;2022-11-11T17:51:41;18.30;99.90
61004;DHT22;46889;37.310;13.582;2022-11-11T17:54:13;18.30;99.90